sensor_id;sensor_type;location;lat;lon;timestamp;P1;durP1;ratioP1;P2;durP2;ratioP2
549;SDS011;20066;48.764;9.176;2023-04-07T00:02:13;14.35;;;8.20;;
549;SDS011;20066;48.764;9.176;2023-04-07T00:04:41;13.57;;;7.80;;
549;SDS011;20066;48.764;9.176;2023-04-07T00:07:09;14.13;;;7.70;;
549;SDS011;20066;48.764;9.176;2023-04-07T00:09:37;12.45;;;6.82;;
549;SDS011;20066;48.764;9.176;2023-04-07T00:12:05;13.98;;;7.85;;
549;SDS011;20066;48.764;9.176;2023-04-07T00:14:33;13.27;;;7.28;;
549;SDS011;20066;48.764;9.176;2023-04-07T00:17:02;15.50;;;8.13;;
549;SDS011;20066;48.764;9.176;2023-04-07T00:19:30;15.52;;;7.65;;
549;SDS011;20066;48.764;9.176;2023-04-07T00:21:58;12.68;;;7.05;;
549;SDS011;20066;48.764;9.176;2023-04-07T00:24:26;12.77;;;7.30;;
549;SDS011;20066;48.764;9.176;2023-04-07T00:27:00;14.00;;;7.60;;
549;SDS011;20066;48.764;9.176;2023-04-07T00:29:28;11.90;;;7.10;;
549;SDS011;20066;48.764;9.176;2023-04-07T00:31:56;14.90;;;7.07;;
549;SDS011;20066;48.764;9.176;2023-04-07T00:34:25;12.88;;;7.18;;
549;SDS011;20066;48.764;9.176;2023-04-07T00:36:53;16.77;;;7.50;;
549;SDS011;20066;48.764;9.176;2023-04-07T00:39:21;12.50;;;7.80;;
549;SDS011;20066;48.764;9.176;2023-04-07T00:41:49;13.82;;;6.78;;
549;SDS011;20066;48.764;9.176;2023-04-07T00:44:17;11.25;;;6.25;;
549;SDS011;20066;48.764;9.176;2023-04-07T00:46:45;14.20;;;7.35;;
549;SDS011;20066;48.764;9.176;2023-04-07T00:49:14;14.70;;;8.13;;
549;SDS011;20066;48.764;9.176;2023-04-07T00:51:44;14.32;;;6.93;;
549;SDS011;20066;48.764;9.176;2023-04-07T00:54:12;13.75;;;7.07;;
549;SDS011;20066;48.764;9.176;2023-04-07T00:56:41;12.45;;;7.05;;
549;SDS011;20066;48.764;9.176;2023-04-07T00:59:09;13.13;;;6.97;;
549;SDS011;20066;48.764;9.176;2023-04-07T01:01:38;14.77;;;8.07;;
549;SDS011;20066;48.764;9.176;2023-04-07T01:04:11;11.80;;;6.57;;
549;SDS011;20066;48.764;9.176;2023-04-07T01:06:49;13.35;;;7.40;;
549;SDS011;20066;48.764;9.176;2023-04-07T01:09:22;12.55;;;7.30;;
549;SDS011;20066;48.764;9.176;2023-04-07T01:11:58;12.40;;;7.15;;
549;SDS011;20066;48.764;9.176;2023-04-07T01:14:32;13.70;;;7.20;;
549;SDS011;20066;48.764;9.176;2023-04-07T01:17:06;13.50;;;6.50;;
549;SDS011;20066;48.764;9.176;2023-04-07T01:19:37;11.82;;;6.45;;
549;SDS011;20066;48.764;9.176;2023-04-07T01:22:12;13.23;;;7.75;;
549;SDS011;20066;48.764;9.176;2023-04-07T01:24:45;11.48;;;6.95;;
549;SDS011;20066;48.764;9.176;2023-04-07T01:27:32;13.63;;;7.35;;
549;SDS011;20066;48.764;9.176;2023-04-07T01:30:07;12.55;;;7.55;;
549;SDS011;20066;48.764;9.176;2023-04-07T01:32:38;13.55;;;6.90;;
549;SDS011;20066;48.764;9.176;2023-04-07T01:35:09;14.10;;;7.93;;
549;SDS011;20066;48.764;9.176;2023-04-07T01:37:39;11.77;;;6.53;;
549;SDS011;20066;48.764;9.176;2023-04-07T01:40:07;13.70;;;7.80;;
549;SDS011;20066;48.764;9.176;2023-04-07T01:42:36;14.63;;;7.15;;
549;SDS011;20066;48.764;9.176;2023-04-07T01:45:10;14.40;;;7.43;;
549;SDS011;20066;48.764;9.176;2023-04-07T01:47:38;15.43;;;7.50;;
549;SDS011;20066;48.764;9.176;2023-04-07T01:50:07;13.82;;;7.75;;
549;SDS011;20066;48.764;9.176;2023-04-07T01:52:37;14.75;;;8.30;;
549;SDS011;20066;48.764;9.176;2023-04-07T01:55:06;12.70;;;8.00;;
549;SDS011;20066;48.764;9.176;2023-04-07T01:57:35;11.80;;;6.72;;
549;SDS011;20066;48.764;9.176;2023-04-07T02:00:03;11.07;;;7.18;;
549;SDS011;20066;48.764;9.176;2023-04-07T02:02:33;12.13;;;7.30;;
549;SDS011;20066;48.764;9.176;2023-04-07T02:05:08;12.50;;;6.65;;
549;SDS011;20066;48.764;9.176;2023-04-07T02:07:40;12.35;;;7.47;;
549;SDS011;20066;48.764;9.176;2023-04-07T02:10:12;15.07;;;8.07;;
549;SDS011;20066;48.764;9.176;2023-04-07T02:12:42;13.02;;;7.30;;
549;SDS011;20066;48.764;9.176;2023-04-07T02:15:12;12.43;;;7.55;;
549;SDS011;20066;48.764;9.176;2023-04-07T02:17:45;12.05;;;7.38;;
549;SDS011;20066;48.764;9.176;2023-04-07T02:20:16;13.82;;;7.55;;
549;SDS011;20066;48.764;9.176;2023-04-07T02:22:44;12.77;;;7.47;;
549;SDS011;20066;48.764;9.176;2023-04-07T02:25:22;15.75;;;7.40;;
549;SDS011;20066;48.764;9.176;2023-04-07T02:27:51;14.20;;;7.28;;
549;SDS011;20066;48.764;9.176;2023-04-07T02:30:19;16.35;;;7.82;;
549;SDS011;20066;48.764;9.176;2023-04-07T02:32:49;11.50;;;6.82;;
549;SDS011;20066;48.764;9.176;2023-04-07T02:35:16;13.70;;;7.55;;
549;SDS011;20066;48.764;9.176;2023-04-07T02:37:45;13.75;;;7.50;;
549;SDS011;20066;48.764;9.176;2023-04-07T02:40:13;13.30;;;7.32;;
549;SDS011;20066;48.764;9.176;2023-04-07T02:42:41;13.60;;;7.10;;
549;SDS011;20066;48.764;9.176;2023-04-07T02:45:10;12.40;;;7.28;;
549;SDS011;20066;48.764;9.176;2023-04-07T02:47:38;18.13;;;7.85;;
549;SDS011;20066;48.764;9.176;2023-04-07T02:50:08;13.57;;;7.57;;
549;SDS011;20066;48.764;9.176;2023-04-07T02:52:36;14.50;;;8.25;;
549;SDS011;20066;48.764;9.176;2023-04-07T02:55:04;11.95;;;7.07;;
549;SDS011;20066;48.764;9.176;2023-04-07T02:57:33;11.00;;;6.72;;
549;SDS011;20066;48.764;9.176;2023-04-07T03:00:00;11.98;;;6.90;;
549;SDS011;20066;48.764;9.176;2023-04-07T03:02:28;13.18;;;7.55;;
549;SDS011;20066;48.764;9.176;2023-04-07T03:04:56;13.35;;;7.10;;
549;SDS011;20066;48.764;9.176;2023-04-07T03:07:25;13.90;;;8.02;;
549;SDS011;20066;48.764;9.176;2023-04-07T03:09:53;16.02;;;7.05;;
549;SDS011;20066;48.764;9.176;2023-04-07T03:12:21;15.57;;;7.65;;
549;SDS011;20066;48.764;9.176;2023-04-07T03:14:48;12.18;;;7.15;;
549;SDS011;20066;48.764;9.176;2023-04-07T03:17:16;13.50;;;7.25;;
549;SDS011;20066;48.764;9.176;2023-04-07T03:19:44;14.77;;;7.88;;
549;SDS011;20066;48.764;9.176;2023-04-07T03:22:12;11.38;;;6.97;;
549;SDS011;20066;48.764;9.176;2023-04-07T03:24:41;15.18;;;7.38;;
549;SDS011;20066;48.764;9.176;2023-04-07T03:27:09;14.45;;;7.55;;
549;SDS011;20066;48.764;9.176;2023-04-07T03:29:36;16.35;;;8.13;;
549;SDS011;20066;48.764;9.176;2023-04-07T03:32:04;15.93;;;7.30;;
549;SDS011;20066;48.764;9.176;2023-04-07T03:34:32;15.45;;;7.47;;
549;SDS011;20066;48.764;9.176;2023-04-07T03:36:59;12.32;;;7.40;;
549;SDS011;20066;48.764;9.176;2023-04-07T03:39:27;15.10;;;7.72;;
549;SDS011;20066;48.764;9.176;2023-04-07T03:41:56;13.70;;;7.43;;
549;SDS011;20066;48.764;9.176;2023-04-07T03:44:24;12.38;;;7.18;;
549;SDS011;20066;48.764;9.176;2023-04-07T03:46:52;13.15;;;7.47;;
549;SDS011;20066;48.764;9.176;2023-04-07T03:49:19;16.98;;;7.60;;
549;SDS011;20066;48.764;9.176;2023-04-07T03:51:48;13.32;;;7.55;;
549;SDS011;20066;48.764;9.176;2023-04-07T03:54:15;16.92;;;8.40;;
549;SDS011;20066;48.764;9.176;2023-04-07T03:56:43;15.63;;;8.70;;
549;SDS011;20066;48.764;9.176;2023-04-07T03:59:12;16.17;;;8.13;;
549;SDS011;20066;48.764;9.176;2023-04-07T04:01:40;12.88;;;7.45;;
549;SDS011;20066;48.764;9.176;2023-04-07T04:04:08;13.43;;;7.85;;
549;SDS011;20066;48.764;9.176;2023-04-07T04:06:36;14.75;;;7.75;;
549;SDS011;20066;48.764;9.176;2023-04-07T04:09:04;15.77;;;7.53;;
549;SDS011;20066;48.764;9.176;2023-04-07T04:11:32;15.15;;;8.35;;
549;SDS011;20066;48.764;9.176;2023-04-07T04:14:00;18.50;;;9.23;;
549;SDS011;20066;48.764;9.176;2023-04-07T04:16:29;16.15;;;7.78;;
549;SDS011;20066;48.764;9.176;2023-04-07T04:18:57;14.00;;;8.55;;
549;SDS011;20066;48.764;9.176;2023-04-07T04:21:24;18.02;;;8.93;;
549;SDS011;20066;48.764;9.176;2023-04-07T04:23:53;16.88;;;9.00;;
549;SDS011;20066;48.764;9.176;2023-04-07T04:26:20;15.35;;;8.40;;
549;SDS011;20066;48.764;9.176;2023-04-07T04:28:51;13.93;;;8.13;;
549;SDS011;20066;48.764;9.176;2023-04-07T04:31:19;18.98;;;8.75;;
549;SDS011;20066;48.764;9.176;2023-04-07T04:33:48;20.38;;;9.50;;
549;SDS011;20066;48.764;9.176;2023-04-07T04:36:16;14.18;;;7.40;;
549;SDS011;20066;48.764;9.176;2023-04-07T04:38:44;16.48;;;8.73;;
549;SDS011;20066;48.764;9.176;2023-04-07T04:41:11;15.18;;;8.48;;
549;SDS011;20066;48.764;9.176;2023-04-07T04:43:39;20.25;;;9.15;;
549;SDS011;20066;48.764;9.176;2023-04-07T04:46:07;12.10;;;7.68;;
549;SDS011;20066;48.764;9.176;2023-04-07T04:48:35;13.73;;;8.45;;
549;SDS011;20066;48.764;9.176;2023-04-07T04:51:05;17.42;;;8.07;;
549;SDS011;20066;48.764;9.176;2023-04-07T04:53:33;14.75;;;8.82;;
549;SDS011;20066;48.764;9.176;2023-04-07T04:56:01;16.45;;;8.57;;
549;SDS011;20066;48.764;9.176;2023-04-07T04:58:29;13.68;;;8.23;;
549;SDS011;20066;48.764;9.176;2023-04-07T05:00:57;13.68;;;7.72;;
549;SDS011;20066;48.764;9.176;2023-04-07T05:03:26;13.60;;;7.78;;
549;SDS011;20066;48.764;9.176;2023-04-07T05:05:55;14.48;;;7.60;;
549;SDS011;20066;48.764;9.176;2023-04-07T05:08:24;14.65;;;8.07;;
549;SDS011;20066;48.764;9.176;2023-04-07T05:10:52;14.10;;;7.53;;
549;SDS011;20066;48.764;9.176;2023-04-07T05:13:20;14.57;;;8.20;;
549;SDS011;20066;48.764;9.176;2023-04-07T05:15:48;15.73;;;8.90;;
549;SDS011;20066;48.764;9.176;2023-04-07T05:18:15;14.00;;;8.15;;
549;SDS011;20066;48.764;9.176;2023-04-07T05:20:43;12.55;;;7.32;;
549;SDS011;20066;48.764;9.176;2023-04-07T05:23:11;14.30;;;7.80;;
549;SDS011;20066;48.764;9.176;2023-04-07T05:25:40;11.95;;;7.15;;
549;SDS011;20066;48.764;9.176;2023-04-07T05:28:08;15.27;;;8.00;;
549;SDS011;20066;48.764;9.176;2023-04-07T05:30:36;13.75;;;8.30;;
549;SDS011;20066;48.764;9.176;2023-04-07T05:33:03;14.73;;;7.35;;
549;SDS011;20066;48.764;9.176;2023-04-07T05:35:31;14.73;;;8.20;;
549;SDS011;20066;48.764;9.176;2023-04-07T05:37:59;14.13;;;8.07;;
549;SDS011;20066;48.764;9.176;2023-04-07T05:40:27;13.25;;;7.00;;
549;SDS011;20066;48.764;9.176;2023-04-07T05:42:56;15.15;;;8.13;;
549;SDS011;20066;48.764;9.176;2023-04-07T05:45:24;14.77;;;8.32;;
549;SDS011;20066;48.764;9.176;2023-04-07T05:47:52;13.77;;;7.43;;
549;SDS011;20066;48.764;9.176;2023-04-07T05:50:19;15.15;;;7.57;;
549;SDS011;20066;48.764;9.176;2023-04-07T05:52:47;12.00;;;7.03;;
549;SDS011;20066;48.764;9.176;2023-04-07T05:55:15;18.92;;;8.60;;
549;SDS011;20066;48.764;9.176;2023-04-07T05:57:43;13.00;;;7.25;;
549;SDS011;20066;48.764;9.176;2023-04-07T06:00:12;12.25;;;7.55;;
549;SDS011;20066;48.764;9.176;2023-04-07T06:02:41;13.35;;;6.97;;
549;SDS011;20066;48.764;9.176;2023-04-07T06:05:09;17.42;;;7.97;;
549;SDS011;20066;48.764;9.176;2023-04-07T06:07:37;12.02;;;7.65;;
549;SDS011;20066;48.764;9.176;2023-04-07T06:10:05;13.93;;;7.60;;
549;SDS011;20066;48.764;9.176;2023-04-07T06:12:34;12.23;;;7.65;;
549;SDS011;20066;48.764;9.176;2023-04-07T06:15:02;15.52;;;7.35;;
549;SDS011;20066;48.764;9.176;2023-04-07T06:17:31;13.98;;;7.57;;
549;SDS011;20066;48.764;9.176;2023-04-07T06:19:59;17.52;;;8.43;;
549;SDS011;20066;48.764;9.176;2023-04-07T06:22:27;13.90;;;7.68;;
549;SDS011;20066;48.764;9.176;2023-04-07T06:24:54;13.65;;;7.53;;
549;SDS011;20066;48.764;9.176;2023-04-07T06:27:22;16.27;;;8.02;;
549;SDS011;20066;48.764;9.176;2023-04-07T06:29:50;12.98;;;7.80;;
549;SDS011;20066;48.764;9.176;2023-04-07T06:32:18;16.63;;;8.70;;
549;SDS011;20066;48.764;9.176;2023-04-07T06:34:48;24.85;;;11.27;;
549;SDS011;20066;48.764;9.176;2023-04-07T06:37:15;13.57;;;7.90;;
549;SDS011;20066;48.764;9.176;2023-04-07T06:39:43;15.32;;;8.77;;
549;SDS011;20066;48.764;9.176;2023-04-07T06:42:11;11.68;;;7.05;;
549;SDS011;20066;48.764;9.176;2023-04-07T06:44:39;14.45;;;8.38;;
549;SDS011;20066;48.764;9.176;2023-04-07T06:47:07;12.55;;;7.28;;
549;SDS011;20066;48.764;9.176;2023-04-07T06:49:34;14.52;;;7.93;;
549;SDS011;20066;48.764;9.176;2023-04-07T06:52:04;21.13;;;8.35;;
549;SDS011;20066;48.764;9.176;2023-04-07T06:54:32;15.85;;;9.38;;
549;SDS011;20066;48.764;9.176;2023-04-07T06:56:59;16.40;;;8.65;;
549;SDS011;20066;48.764;9.176;2023-04-07T06:59:27;13.30;;;7.53;;
549;SDS011;20066;48.764;9.176;2023-04-07T07:01:55;17.67;;;8.60;;
549;SDS011;20066;48.764;9.176;2023-04-07T07:04:24;14.95;;;8.15;;
549;SDS011;20066;48.764;9.176;2023-04-07T07:06:52;15.18;;;8.65;;
549;SDS011;20066;48.764;9.176;2023-04-07T07:09:22;14.93;;;8.05;;
549;SDS011;20066;48.764;9.176;2023-04-07T07:11:50;17.25;;;8.23;;
549;SDS011;20066;48.764;9.176;2023-04-07T07:14:18;16.63;;;8.48;;
549;SDS011;20066;48.764;9.176;2023-04-07T07:16:46;14.13;;;8.55;;
549;SDS011;20066;48.764;9.176;2023-04-07T07:19:14;16.58;;;8.07;;
549;SDS011;20066;48.764;9.176;2023-04-07T07:21:42;15.07;;;8.45;;
549;SDS011;20066;48.764;9.176;2023-04-07T07:24:09;15.13;;;7.97;;
549;SDS011;20066;48.764;9.176;2023-04-07T07:26:39;17.48;;;8.68;;
549;SDS011;20066;48.764;9.176;2023-04-07T07:29:09;14.90;;;8.15;;
549;SDS011;20066;48.764;9.176;2023-04-07T07:31:37;15.57;;;8.00;;
549;SDS011;20066;48.764;9.176;2023-04-07T07:34:05;15.90;;;8.43;;
549;SDS011;20066;48.764;9.176;2023-04-07T07:36:32;13.80;;;8.02;;
549;SDS011;20066;48.764;9.176;2023-04-07T07:39:00;14.48;;;7.85;;
549;SDS011;20066;48.764;9.176;2023-04-07T07:41:28;13.93;;;7.70;;
549;SDS011;20066;48.764;9.176;2023-04-07T07:43:57;11.90;;;7.38;;
549;SDS011;20066;48.764;9.176;2023-04-07T07:46:25;15.55;;;8.40;;
549;SDS011;20066;48.764;9.176;2023-04-07T07:48:53;14.90;;;8.10;;
549;SDS011;20066;48.764;9.176;2023-04-07T07:51:21;12.93;;;7.25;;
549;SDS011;20066;48.764;9.176;2023-04-07T07:53:49;12.27;;;7.22;;
549;SDS011;20066;48.764;9.176;2023-04-07T07:56:17;18.35;;;8.32;;
549;SDS011;20066;48.764;9.176;2023-04-07T07:58:46;15.77;;;7.70;;
549;SDS011;20066;48.764;9.176;2023-04-07T08:01:16;18.50;;;7.90;;
549;SDS011;20066;48.764;9.176;2023-04-07T08:03:43;11.40;;;7.20;;
549;SDS011;20066;48.764;9.176;2023-04-07T08:06:12;17.37;;;7.67;;
549;SDS011;20066;48.764;9.176;2023-04-07T08:08:41;11.77;;;6.90;;
549;SDS011;20066;48.764;9.176;2023-04-07T08:11:09;11.50;;;6.83;;
549;SDS011;20066;48.764;9.176;2023-04-07T08:13:37;13.40;;;6.20;;
549;SDS011;20066;48.764;9.176;2023-04-07T08:16:05;15.60;;;7.70;;
549;SDS011;20066;48.764;9.176;2023-04-07T08:18:34;11.60;;;7.60;;
549;SDS011;20066;48.764;9.176;2023-04-07T08:21:03;13.07;;;6.90;;
549;SDS011;20066;48.764;9.176;2023-04-07T08:23:34;10.77;;;6.77;;
549;SDS011;20066;48.764;9.176;2023-04-07T08:26:02;12.20;;;6.60;;
549;SDS011;20066;48.764;9.176;2023-04-07T08:28:29;14.50;;;7.13;;
549;SDS011;20066;48.764;9.176;2023-04-07T08:30:57;10.97;;;7.23;;
549;SDS011;20066;48.764;9.176;2023-04-07T08:33:25;9.70;;;6.50;;
549;SDS011;20066;48.764;9.176;2023-04-07T08:35:54;12.47;;;6.70;;
549;SDS011;20066;48.764;9.176;2023-04-07T08:38:22;10.63;;;6.40;;
549;SDS011;20066;48.764;9.176;2023-04-07T08:40:52;10.90;;;6.77;;
549;SDS011;20066;48.764;9.176;2023-04-07T08:43:24;9.90;;;5.87;;
549;SDS011;20066;48.764;9.176;2023-04-07T08:45:53;9.80;;;6.23;;
549;SDS011;20066;48.764;9.176;2023-04-07T08:48:23;11.05;;;6.55;;
549;SDS011;20066;48.764;9.176;2023-04-07T08:50:52;10.70;;;6.23;;
549;SDS011;20066;48.764;9.176;2023-04-07T08:53:25;8.67;;;5.70;;
549;SDS011;20066;48.764;9.176;2023-04-07T08:56:01;10.20;;;6.30;;
549;SDS011;20066;48.764;9.176;2023-04-07T08:58:31;9.40;;;5.37;;
549;SDS011;20066;48.764;9.176;2023-04-07T09:00:59;9.23;;;5.20;;
549;SDS011;20066;48.764;9.176;2023-04-07T09:03:28;10.07;;;5.87;;
549;SDS011;20066;48.764;9.176;2023-04-07T09:05:58;9.77;;;5.70;;
549;SDS011;20066;48.764;9.176;2023-04-07T09:08:29;10.07;;;5.90;;
549;SDS011;20066;48.764;9.176;2023-04-07T09:10:56;11.70;;;5.70;;
549;SDS011;20066;48.764;9.176;2023-04-07T09:13:24;10.33;;;5.20;;
549;SDS011;20066;48.764;9.176;2023-04-07T09:15:52;10.17;;;5.90;;
549;SDS011;20066;48.764;9.176;2023-04-07T09:18:21;13.13;;;7.27;;
549;SDS011;20066;48.764;9.176;2023-04-07T09:20:56;11.80;;;6.97;;
549;SDS011;20066;48.764;9.176;2023-04-07T09:23:30;13.47;;;6.60;;
549;SDS011;20066;48.764;9.176;2023-04-07T09:25:59;14.47;;;6.13;;
549;SDS011;20066;48.764;9.176;2023-04-07T09:28:44;8.47;;;5.70;;
549;SDS011;20066;48.764;9.176;2023-04-07T09:31:13;8.90;;;5.40;;
549;SDS011;20066;48.764;9.176;2023-04-07T09:33:41;14.37;;;6.70;;
549;SDS011;20066;48.764;9.176;2023-04-07T09:36:09;12.83;;;6.07;;
549;SDS011;20066;48.764;9.176;2023-04-07T09:38:39;9.17;;;5.53;;
549;SDS011;20066;48.764;9.176;2023-04-07T09:41:08;12.50;;;6.30;;
549;SDS011;20066;48.764;9.176;2023-04-07T09:43:39;9.10;;;5.70;;
549;SDS011;20066;48.764;9.176;2023-04-07T09:46:11;9.90;;;5.30;;
549;SDS011;20066;48.764;9.176;2023-04-07T09:48:40;11.87;;;5.40;;
549;SDS011;20066;48.764;9.176;2023-04-07T09:51:10;12.40;;;6.00;;
549;SDS011;20066;48.764;9.176;2023-04-07T09:53:42;13.10;;;5.50;;
549;SDS011;20066;48.764;9.176;2023-04-07T09:56:12;7.97;;;5.27;;
549;SDS011;20066;48.764;9.176;2023-04-07T09:58:43;10.83;;;5.00;;
549;SDS011;20066;48.764;9.176;2023-04-07T10:01:12;10.40;;;5.83;;
549;SDS011;20066;48.764;9.176;2023-04-07T10:03:43;15.93;;;5.80;;
549;SDS011;20066;48.764;9.176;2023-04-07T10:06:13;11.57;;;6.13;;
549;SDS011;20066;48.764;9.176;2023-04-07T10:08:43;11.40;;;5.80;;
549;SDS011;20066;48.764;9.176;2023-04-07T10:11:12;9.43;;;6.60;;
549;SDS011;20066;48.764;9.176;2023-04-07T10:13:42;12.32;;;6.80;;
549;SDS011;20066;48.764;9.176;2023-04-07T10:16:10;9.93;;;5.80;;
549;SDS011;20066;48.764;9.176;2023-04-07T10:18:38;7.67;;;5.23;;
549;SDS011;20066;48.764;9.176;2023-04-07T10:21:07;10.30;;;5.70;;
549;SDS011;20066;48.764;9.176;2023-04-07T10:23:47;9.07;;;5.60;;
549;SDS011;20066;48.764;9.176;2023-04-07T10:26:21;10.00;;;5.37;;
549;SDS011;20066;48.764;9.176;2023-04-07T10:28:52;10.53;;;6.07;;
549;SDS011;20066;48.764;9.176;2023-04-07T10:31:25;13.63;;;6.30;;
549;SDS011;20066;48.764;9.176;2023-04-07T10:33:53;13.60;;;6.37;;
549;SDS011;20066;48.764;9.176;2023-04-07T10:36:22;13.13;;;6.60;;
549;SDS011;20066;48.764;9.176;2023-04-07T10:41:48;9.80;;;5.80;;
549;SDS011;20066;48.764;9.176;2023-04-07T10:47:15;11.23;;;5.83;;
549;SDS011;20066;48.764;9.176;2023-04-07T10:52:43;17.50;;;6.80;;
549;SDS011;20066;48.764;9.176;2023-04-07T10:55:32;10.30;;;5.60;;
549;SDS011;20066;48.764;9.176;2023-04-07T11:03:53;12.87;;;6.10;;
549;SDS011;20066;48.764;9.176;2023-04-07T11:06:25;12.80;;;6.10;;
549;SDS011;20066;48.764;9.176;2023-04-07T11:08:53;7.10;;;4.90;;
549;SDS011;20066;48.764;9.176;2023-04-07T11:11:39;13.10;;;5.20;;
549;SDS011;20066;48.764;9.176;2023-04-07T11:14:07;12.90;;;5.93;;
549;SDS011;20066;48.764;9.176;2023-04-07T11:16:37;13.03;;;5.80;;
549;SDS011;20066;48.764;9.176;2023-04-07T11:19:10;12.40;;;5.80;;
549;SDS011;20066;48.764;9.176;2023-04-07T11:21:38;10.73;;;5.50;;
549;SDS011;20066;48.764;9.176;2023-04-07T11:24:06;13.70;;;5.70;;
549;SDS011;20066;48.764;9.176;2023-04-07T11:26:39;10.03;;;5.07;;
549;SDS011;20066;48.764;9.176;2023-04-07T11:29:07;11.87;;;5.90;;
549;SDS011;20066;48.764;9.176;2023-04-07T11:31:37;13.30;;;5.67;;
549;SDS011;20066;48.764;9.176;2023-04-07T11:34:05;12.13;;;5.40;;
549;SDS011;20066;48.764;9.176;2023-04-07T11:36:37;12.17;;;5.57;;
549;SDS011;20066;48.764;9.176;2023-04-07T11:39:16;14.53;;;5.10;;
549;SDS011;20066;48.764;9.176;2023-04-07T11:41:47;11.07;;;5.00;;
549;SDS011;20066;48.764;9.176;2023-04-07T11:44:16;10.03;;;4.53;;
549;SDS011;20066;48.764;9.176;2023-04-07T11:46:53;12.43;;;5.87;;
549;SDS011;20066;48.764;9.176;2023-04-07T11:49:22;11.03;;;6.33;;
549;SDS011;20066;48.764;9.176;2023-04-07T11:51:56;8.13;;;4.83;;
549;SDS011;20066;48.764;9.176;2023-04-07T11:54:25;10.43;;;4.20;;
549;SDS011;20066;48.764;9.176;2023-04-07T11:56:54;7.30;;;3.33;;
549;SDS011;20066;48.764;9.176;2023-04-07T11:59:23;7.20;;;3.83;;
549;SDS011;20066;48.764;9.176;2023-04-07T12:01:51;10.70;;;4.47;;
549;SDS011;20066;48.764;9.176;2023-04-07T12:04:23;9.63;;;4.77;;
549;SDS011;20066;48.764;9.176;2023-04-07T12:06:51;10.03;;;5.57;;
549;SDS011;20066;48.764;9.176;2023-04-07T12:09:24;9.20;;;5.63;;
549;SDS011;20066;48.764;9.176;2023-04-07T12:11:55;12.90;;;5.97;;
549;SDS011;20066;48.764;9.176;2023-04-07T12:14:23;9.83;;;6.47;;
549;SDS011;20066;48.764;9.176;2023-04-07T12:16:52;15.63;;;7.07;;
549;SDS011;20066;48.764;9.176;2023-04-07T12:19:21;11.80;;;6.20;;
549;SDS011;20066;48.764;9.176;2023-04-07T12:21:49;10.47;;;5.77;;
549;SDS011;20066;48.764;9.176;2023-04-07T12:24:17;12.07;;;6.60;;
549;SDS011;20066;48.764;9.176;2023-04-07T12:26:45;9.57;;;5.57;;
549;SDS011;20066;48.764;9.176;2023-04-07T12:29:15;12.97;;;5.20;;
549;SDS011;20066;48.764;9.176;2023-04-07T12:31:45;6.17;;;4.10;;
549;SDS011;20066;48.764;9.176;2023-04-07T12:34:16;6.07;;;3.97;;
549;SDS011;20066;48.764;9.176;2023-04-07T12:36:44;10.80;;;5.30;;
549;SDS011;20066;48.764;9.176;2023-04-07T12:39:12;5.50;;;4.07;;
549;SDS011;20066;48.764;9.176;2023-04-07T12:41:39;9.43;;;5.60;;
549;SDS011;20066;48.764;9.176;2023-04-07T12:44:08;8.33;;;4.70;;
549;SDS011;20066;48.764;9.176;2023-04-07T12:46:37;6.40;;;4.20;;
549;SDS011;20066;48.764;9.176;2023-04-07T12:49:05;7.13;;;4.20;;
549;SDS011;20066;48.764;9.176;2023-04-07T12:51:33;8.63;;;3.90;;
549;SDS011;20066;48.764;9.176;2023-04-07T12:54:01;7.87;;;3.63;;
549;SDS011;20066;48.764;9.176;2023-04-07T12:56:29;6.83;;;4.37;;
549;SDS011;20066;48.764;9.176;2023-04-07T12:58:57;10.23;;;4.47;;
549;SDS011;20066;48.764;9.176;2023-04-07T13:01:25;8.75;;;4.10;;
549;SDS011;20066;48.764;9.176;2023-04-07T13:03:54;7.10;;;3.30;;
549;SDS011;20066;48.764;9.176;2023-04-07T13:06:23;5.10;;;2.70;;
549;SDS011;20066;48.764;9.176;2023-04-07T13:08:50;5.70;;;3.13;;
549;SDS011;20066;48.764;9.176;2023-04-07T13:11:18;5.33;;;3.40;;
549;SDS011;20066;48.764;9.176;2023-04-07T13:13:47;5.00;;;3.07;;
549;SDS011;20066;48.764;9.176;2023-04-07T13:16:15;4.40;;;3.10;;
549;SDS011;20066;48.764;9.176;2023-04-07T13:18:43;4.80;;;3.00;;
549;SDS011;20066;48.764;9.176;2023-04-07T13:21:12;4.57;;;2.97;;
549;SDS011;20066;48.764;9.176;2023-04-07T13:23:42;4.40;;;2.90;;
549;SDS011;20066;48.764;9.176;2023-04-07T13:26:11;4.83;;;3.17;;
549;SDS011;20066;48.764;9.176;2023-04-07T13:28:39;6.30;;;2.67;;
549;SDS011;20066;48.764;9.176;2023-04-07T13:31:11;6.80;;;3.00;;
549;SDS011;20066;48.764;9.176;2023-04-07T13:33:41;3.17;;;2.67;;
549;SDS011;20066;48.764;9.176;2023-04-07T13:36:09;11.97;;;3.77;;
549;SDS011;20066;48.764;9.176;2023-04-07T13:38:39;4.93;;;3.50;;
549;SDS011;20066;48.764;9.176;2023-04-07T13:41:07;6.60;;;3.57;;
549;SDS011;20066;48.764;9.176;2023-04-07T13:43:35;5.53;;;3.20;;
549;SDS011;20066;48.764;9.176;2023-04-07T13:46:03;7.00;;;3.50;;
549;SDS011;20066;48.764;9.176;2023-04-07T13:48:42;5.27;;;3.23;;
549;SDS011;20066;48.764;9.176;2023-04-07T13:51:10;4.27;;;3.20;;
549;SDS011;20066;48.764;9.176;2023-04-07T13:53:39;6.20;;;3.60;;
549;SDS011;20066;48.764;9.176;2023-04-07T13:56:09;5.10;;;2.80;;
549;SDS011;20066;48.764;9.176;2023-04-07T13:58:37;5.80;;;3.63;;
549;SDS011;20066;48.764;9.176;2023-04-07T14:01:05;6.57;;;3.60;;
549;SDS011;20066;48.764;9.176;2023-04-07T14:03:33;6.53;;;2.93;;
549;SDS011;20066;48.764;9.176;2023-04-07T14:06:01;3.83;;;2.00;;
549;SDS011;20066;48.764;9.176;2023-04-07T14:08:29;2.93;;;1.87;;
549;SDS011;20066;48.764;9.176;2023-04-07T14:10:59;4.37;;;2.80;;
549;SDS011;20066;48.764;9.176;2023-04-07T14:13:26;3.93;;;2.47;;
549;SDS011;20066;48.764;9.176;2023-04-07T14:15:54;5.87;;;2.40;;
549;SDS011;20066;48.764;9.176;2023-04-07T14:18:22;3.97;;;2.23;;
549;SDS011;20066;48.764;9.176;2023-04-07T14:20:50;5.60;;;3.03;;
549;SDS011;20066;48.764;9.176;2023-04-07T14:23:18;7.43;;;2.53;;
549;SDS011;20066;48.764;9.176;2023-04-07T14:26:03;6.43;;;2.73;;
549;SDS011;20066;48.764;9.176;2023-04-07T14:28:31;9.00;;;3.67;;
549;SDS011;20066;48.764;9.176;2023-04-07T14:30:59;4.67;;;3.17;;
549;SDS011;20066;48.764;9.176;2023-04-07T14:33:27;7.37;;;3.93;;
549;SDS011;20066;48.764;9.176;2023-04-07T14:35:55;8.27;;;3.87;;
549;SDS011;20066;48.764;9.176;2023-04-07T14:38:22;6.00;;;3.70;;
549;SDS011;20066;48.764;9.176;2023-04-07T14:40:51;9.70;;;4.80;;
549;SDS011;20066;48.764;9.176;2023-04-07T14:43:20;10.00;;;4.23;;
549;SDS011;20066;48.764;9.176;2023-04-07T14:45:48;10.50;;;4.00;;
549;SDS011;20066;48.764;9.176;2023-04-07T14:48:16;8.60;;;4.10;;
549;SDS011;20066;48.764;9.176;2023-04-07T14:50:44;6.67;;;3.97;;
549;SDS011;20066;48.764;9.176;2023-04-07T14:53:13;7.47;;;3.77;;
549;SDS011;20066;48.764;9.176;2023-04-07T14:55:41;5.90;;;3.80;;
549;SDS011;20066;48.764;9.176;2023-04-07T14:58:09;5.63;;;3.63;;
549;SDS011;20066;48.764;9.176;2023-04-07T15:00:38;8.13;;;4.40;;
549;SDS011;20066;48.764;9.176;2023-04-07T15:03:06;11.60;;;4.70;;
549;SDS011;20066;48.764;9.176;2023-04-07T15:05:34;8.57;;;5.07;;
549;SDS011;20066;48.764;9.176;2023-04-07T15:08:01;6.27;;;4.20;;
549;SDS011;20066;48.764;9.176;2023-04-07T15:10:29;8.30;;;4.63;;
549;SDS011;20066;48.764;9.176;2023-04-07T15:13:00;10.47;;;4.10;;
549;SDS011;20066;48.764;9.176;2023-04-07T15:15:28;8.47;;;4.20;;
549;SDS011;20066;48.764;9.176;2023-04-07T15:17:58;6.80;;;4.03;;
549;SDS011;20066;48.764;9.176;2023-04-07T15:20:26;8.13;;;5.33;;
549;SDS011;20066;48.764;9.176;2023-04-07T15:22:53;11.20;;;5.30;;
549;SDS011;20066;48.764;9.176;2023-04-07T15:25:21;9.57;;;4.50;;
549;SDS011;20066;48.764;9.176;2023-04-07T15:27:49;7.00;;;4.20;;
549;SDS011;20066;48.764;9.176;2023-04-07T15:30:17;8.03;;;4.40;;
549;SDS011;20066;48.764;9.176;2023-04-07T15:32:54;8.90;;;4.30;;